createdAt,value
2018-07-05T00:00:19.884Z,7.20
2018-07-05T00:02:59.048Z,8.20
2018-07-05T00:05:38.104Z,11.27
2018-07-05T00:08:17.019Z,9.47
2018-07-05T00:10:55.959Z,8.33
2018-07-05T00:13:35.008Z,10.40
2018-07-05T00:16:14.019Z,8.97
2018-07-05T00:18:53.117Z,11.50
2018-07-05T00:21:32.361Z,10.03
2018-07-05T00:24:11.623Z,9.70
2018-07-05T00:26:51.778Z,10.13
2018-07-05T00:29:31.011Z,10.53
2018-07-05T00:32:10.053Z,12.10
2018-07-05T00:34:50.052Z,10.57
2018-07-05T00:37:29.015Z,10.17
2018-07-05T00:40:02.232Z,12.10
2018-07-05T00:42:41.421Z,9.53
2018-07-05T00:45:20.430Z,10.17
2018-07-05T00:47:59.392Z,11.80
2018-07-05T00:50:41.586Z,11.53
2018-07-05T00:53:21.011Z,11.80
2018-07-05T00:56:00.145Z,11.87
2018-07-05T00:58:39.348Z,18.63
2018-07-05T01:01:18.370Z,10.80
2018-07-05T01:03:57.479Z,13.63
2018-07-05T01:06:36.289Z,12.40
2018-07-05T01:09:15.280Z,12.73
2018-07-05T01:11:54.351Z,13.60
2018-07-05T01:14:33.591Z,14.47
2018-07-05T01:17:12.520Z,14.50
2018-07-05T01:19:51.399Z,13.90
2018-07-05T01:22:30.496Z,14.97
2018-07-05T01:25:09.492Z,14.73
2018-07-05T01:27:48.657Z,15.00
2018-07-05T01:30:27.436Z,14.97
2018-07-05T01:33:06.415Z,14.57
2018-07-05T01:35:45.363Z,15.53
2018-07-05T01:38:24.547Z,15.33
2018-07-05T01:41:03.589Z,13.27
2018-07-05T01:43:42.685Z,14.00
2018-07-05T01:46:15.849Z,14.10
2018-07-05T01:48:54.951Z,13.30
2018-07-05T01:51:33.931Z,16.30
2018-07-05T01:54:12.879Z,13.50
2018-07-05T01:56:51.939Z,13.33
2018-07-05T01:59:30.943Z,14.83
2018-07-05T02:02:09.956Z,14.43
2018-07-05T02:04:49.068Z,18.50
2018-07-05T02:07:28.023Z,17.03
2018-07-05T02:10:07.053Z,16.53
2018-07-05T02:12:46.537Z,14.83
2018-07-05T02:15:25.399Z,14.23
2018-07-05T02:18:04.894Z,15.80
2018-07-05T02:20:43.925Z,15.10
2018-07-05T02:23:22.825Z,14.70
2018-07-05T02:26:01.874Z,15.30
2018-07-05T02:28:41.050Z,14.57
2018-07-05T02:31:19.881Z,13.60
2018-07-05T02:34:03.494Z,12.77
2018-07-05T02:36:42.527Z,12.80
2018-07-05T02:39:27.277Z,13.60
2018-07-05T02:42:06.243Z,13.50
2018-07-05T02:44:45.326Z,11.57
2018-07-05T02:47:24.204Z,11.50
2018-07-05T02:50:03.269Z,12.40
2018-07-05T02:52:42.367Z,12.20
2018-07-05T02:55:21.181Z,12.37
2018-07-05T02:58:00.113Z,11.07
2018-07-05T03:00:43.187Z,12.33
2018-07-05T03:03:22.224Z,11.70
2018-07-05T03:06:01.237Z,12.90
2018-07-05T03:08:40.172Z,11.40
2018-07-05T03:11:19.193Z,10.63
2018-07-05T03:13:59.368Z,11.17
2018-07-05T03:16:38.536Z,10.43
2018-07-05T03:19:17.404Z,10.90
2018-07-05T03:21:56.243Z,12.33
2018-07-05T03:24:35.383Z,12.20
2018-07-05T03:27:14.924Z,13.93
2018-07-05T03:29:54.367Z,13.00
2018-07-05T03:32:33.213Z,13.40
2018-07-05T03:35:12.724Z,13.93
2018-07-05T03:37:51.787Z,15.40
2018-07-05T03:40:30.794Z,12.77
2018-07-05T03:43:09.810Z,14.07
2018-07-05T03:45:49.547Z,13.30
2018-07-05T03:48:28.761Z,13.23
2018-07-05T03:51:07.663Z,15.73
2018-07-05T03:53:46.588Z,13.13
2018-07-05T03:56:25.535Z,15.27
2018-07-05T03:59:04.577Z,12.70
2018-07-05T04:01:43.884Z,14.17
2018-07-05T04:04:22.723Z,15.40
2018-07-05T04:07:02.563Z,13.00
2018-07-05T04:09:41.490Z,15.47
2018-07-05T04:12:20.752Z,11.87
2018-07-05T04:15:00.555Z,13.47
2018-07-05T04:17:39.597Z,13.80
2018-07-05T04:20:18.537Z,16.20
2018-07-05T04:22:57.645Z,13.50
2018-07-05T04:25:36.603Z,14.80
2018-07-05T04:28:15.531Z,13.60
2018-07-05T04:30:54.987Z,12.63
2018-07-05T04:33:33.940Z,13.70
2018-07-05T04:36:13.015Z,13.67
2018-07-05T04:38:51.992Z,13.00
2018-07-05T04:41:30.892Z,14.00
2018-07-05T04:44:09.823Z,14.90
2018-07-05T04:46:49.238Z,13.90
2018-07-05T04:49:28.189Z,14.00
2018-07-05T04:52:07.225Z,16.80
2018-07-05T04:54:46.260Z,16.90
2018-07-05T04:57:25.324Z,14.87
2018-07-05T05:00:04.230Z,12.50
2018-07-05T05:02:43.261Z,13.67
2018-07-05T05:05:22.549Z,14.20
2018-07-05T05:08:01.442Z,13.93
2018-07-05T05:10:40.615Z,14.60
2018-07-05T05:13:19.564Z,16.63
2018-07-05T05:15:58.836Z,13.37
2018-07-05T05:18:37.643Z,16.40
2018-07-05T05:21:16.728Z,14.73
2018-07-05T05:23:55.632Z,12.30
2018-07-05T05:26:34.851Z,14.13
2018-07-05T05:29:13.774Z,14.57
2018-07-05T05:31:53.297Z,17.27
2018-07-05T05:34:32.291Z,15.30
2018-07-05T05:37:11.184Z,18.00
2018-07-05T05:39:50.223Z,14.63
2018-07-05T05:42:29.186Z,14.70
2018-07-05T05:45:08.414Z,11.63
2018-07-05T05:47:47.325Z,11.57
2018-07-05T05:50:26.940Z,11.20
2018-07-05T05:53:05.759Z,10.93
2018-07-05T05:55:44.655Z,9.87
2018-07-05T05:58:23.612Z,9.03
2018-07-05T06:01:02.613Z,6.80
2018-07-05T06:03:41.724Z,7.87
2018-07-05T06:06:20.563Z,6.53
2018-07-05T06:08:59.500Z,7.50
2018-07-05T06:11:38.440Z,7.70
2018-07-05T06:14:17.307Z,6.40
2018-07-05T06:16:57.425Z,6.80
2018-07-05T06:19:36.725Z,6.50
2018-07-05T06:22:15.600Z,5.70
2018-07-05T06:24:54.585Z,6.13
2018-07-05T06:27:33.507Z,4.33
2018-07-05T06:30:12.431Z,4.10
2018-07-05T06:32:51.477Z,5.70
2018-07-05T06:35:30.461Z,4.67
2018-07-05T06:38:09.463Z,5.40
2018-07-05T06:40:48.487Z,4.73
2018-07-05T06:43:27.324Z,3.63
2018-07-05T06:46:06.395Z,5.30
2018-07-05T06:48:45.417Z,4.23
2018-07-05T06:51:24.428Z,4.10
2018-07-05T06:54:03.487Z,3.80
2018-07-05T06:56:42.488Z,5.13
2018-07-05T06:59:21.943Z,4.00
2018-07-05T07:02:00.772Z,4.63
2018-07-05T07:04:39.918Z,3.20
2018-07-05T07:07:18.637Z,4.73
2018-07-05T07:09:57.699Z,4.43
2018-07-05T07:12:36.566Z,4.30
2018-07-05T07:15:15.710Z,4.13
2018-07-05T07:17:54.576Z,5.13
2018-07-05T07:20:33.716Z,3.97
2018-07-05T07:23:12.628Z,3.93
2018-07-05T07:25:51.636Z,3.80
2018-07-05T07:28:30.618Z,4.70
2018-07-05T07:31:10.330Z,3.67
2018-07-05T07:33:49.375Z,4.47
2018-07-05T07:36:28.406Z,6.07
2018-07-05T07:39:07.831Z,5.30
2018-07-05T07:41:51.559Z,4.43
2018-07-05T07:44:19.351Z,4.80
2018-07-05T07:46:46.688Z,4.60
2018-07-05T07:49:13.572Z,4.47
2018-07-05T07:51:39.996Z,5.20
2018-07-05T07:54:06.540Z,4.17
2018-07-05T07:56:32.948Z,4.17
2018-07-05T07:58:59.389Z,4.00
2018-07-05T08:01:25.915Z,3.13
2018-07-05T08:03:52.500Z,5.70
2018-07-05T08:06:18.904Z,3.67
2018-07-05T08:08:45.373Z,4.77
2018-07-05T08:11:11.908Z,4.50
2018-07-05T08:13:38.343Z,7.67
2018-07-05T08:16:04.803Z,7.57
2018-07-05T08:18:31.231Z,4.63
2018-07-05T08:20:57.639Z,13.10
2018-07-05T08:23:24.066Z,4.07
2018-07-05T08:25:50.500Z,5.50
2018-07-05T08:28:16.939Z,4.13
2018-07-05T08:30:43.370Z,3.87
2018-07-05T08:33:09.785Z,3.90
2018-07-05T08:35:36.215Z,4.50
2018-07-05T08:38:02.633Z,3.83
2018-07-05T08:40:29.151Z,3.70
2018-07-05T08:42:55.567Z,3.53
2018-07-05T08:45:22.002Z,3.73
2018-07-05T08:47:48.458Z,3.47
2018-07-05T08:50:15.120Z,4.97
2018-07-05T08:52:41.735Z,4.00
2018-07-05T08:55:08.216Z,3.80
2018-07-05T08:57:34.659Z,3.20
2018-07-05T09:00:01.101Z,3.40
2018-07-05T09:02:27.582Z,4.63
2018-07-05T09:04:54.009Z,3.57
2018-07-05T09:07:20.681Z,4.10
2018-07-05T09:09:47.148Z,3.87
2018-07-05T09:12:13.564Z,3.20
2018-07-05T09:14:40.074Z,2.60
2018-07-05T09:17:07.174Z,4.97
2018-07-05T09:19:33.626Z,2.77
2018-07-05T09:22:00.112Z,3.53
2018-07-05T09:24:26.669Z,2.73
2018-07-05T09:26:53.202Z,3.80
2018-07-05T09:29:19.731Z,2.50
2018-07-05T09:31:46.231Z,6.30
2018-07-05T09:34:12.720Z,4.93
2018-07-05T09:36:39.224Z,3.07
2018-07-05T09:39:06.165Z,3.80
2018-07-05T09:41:33.204Z,4.70
2018-07-05T09:43:59.672Z,3.60
2018-07-05T09:46:26.279Z,4.87
2018-07-05T09:48:52.723Z,3.53
2018-07-05T09:51:19.159Z,3.90
2018-07-05T09:53:45.895Z,3.67
2018-07-05T09:56:12.355Z,4.70
2018-07-05T09:58:38.784Z,3.60
2018-07-05T10:01:08.595Z,3.60
2018-07-05T10:03:35.083Z,5.70
2018-07-05T10:06:01.861Z,5.90
2018-07-05T10:08:28.275Z,4.00
2018-07-05T10:10:54.704Z,4.03
2018-07-05T10:13:21.429Z,4.10
2018-07-05T10:15:47.775Z,5.27
2018-07-05T10:18:14.192Z,4.03
2018-07-05T10:20:40.675Z,3.70
2018-07-05T10:23:07.130Z,5.70
2018-07-05T10:25:33.640Z,4.47
2018-07-05T10:28:00.144Z,4.33
2018-07-05T10:30:39.331Z,3.60
2018-07-05T10:33:18.181Z,3.97
2018-07-05T10:35:44.615Z,4.40
2018-07-05T10:38:11.066Z,4.10
2018-07-05T10:40:49.921Z,4.33
2018-07-05T10:43:28.919Z,4.87
2018-07-05T10:46:08.135Z,4.73
2018-07-05T10:48:47.027Z,4.93
2018-07-05T10:51:26.468Z,4.47
2018-07-05T10:54:05.596Z,5.50
2018-07-05T10:56:44.652Z,4.17
2018-07-05T10:59:23.721Z,5.00
2018-07-05T11:02:02.751Z,5.30
2018-07-05T11:04:41.925Z,5.37
2018-07-05T11:07:21.049Z,6.00
2018-07-05T11:09:59.926Z,4.07
2018-07-05T11:12:38.880Z,4.87
2018-07-05T11:15:17.780Z,5.03
2018-07-05T11:17:50.915Z,5.37
2018-07-05T11:20:30.206Z,5.83
2018-07-05T11:23:08.937Z,4.00
2018-07-05T11:25:49.966Z,4.37
2018-07-05T11:28:29.027Z,4.63
2018-07-05T11:31:08.248Z,4.33
2018-07-05T11:33:47.165Z,4.37
2018-07-05T11:36:26.502Z,5.10
2018-07-05T11:39:05.940Z,4.17
2018-07-05T11:41:45.140Z,5.80
2018-07-05T11:44:24.123Z,4.70
2018-07-05T11:47:03.041Z,5.47
2018-07-05T11:49:42.175Z,5.00
2018-07-05T11:52:21.300Z,6.80
2018-07-05T11:55:00.279Z,4.97
2018-07-05T11:57:39.537Z,4.67
2018-07-05T12:00:18.436Z,4.13
2018-07-05T12:02:57.483Z,3.53
2018-07-05T12:05:36.395Z,4.67
2018-07-05T12:08:15.332Z,3.80
2018-07-05T12:10:54.668Z,3.67
2018-07-05T12:13:33.694Z,3.87
2018-07-05T12:16:12.744Z,4.40
2018-07-05T12:18:51.423Z,3.10
2018-07-05T12:21:30.328Z,4.17
2018-07-05T12:24:09.426Z,3.90
2018-07-05T12:26:48.496Z,3.80
2018-07-05T12:29:27.598Z,4.87
2018-07-05T12:32:06.543Z,3.83
2018-07-05T12:34:45.533Z,4.00
2018-07-05T12:37:24.645Z,3.57
2018-07-05T12:40:03.625Z,3.47
2018-07-05T12:42:42.559Z,3.47
2018-07-05T12:45:21.463Z,3.40
2018-07-05T12:48:00.464Z,5.60
2018-07-05T12:50:39.473Z,3.73
2018-07-05T12:53:18.430Z,4.10
2018-07-05T12:55:57.362Z,4.23
2018-07-05T12:58:36.337Z,4.63
2018-07-05T13:01:15.372Z,3.97
2018-07-05T13:03:54.469Z,5.03
2018-07-05T13:06:33.337Z,3.77
2018-07-05T13:09:12.365Z,4.37
2018-07-05T13:11:51.189Z,4.40
2018-07-05T13:14:30.163Z,4.20
2018-07-05T13:17:09.019Z,4.33
2018-07-05T13:19:47.984Z,4.03
2018-07-05T13:22:26.972Z,4.23
2018-07-05T13:25:06.020Z,4.63
2018-07-05T13:27:44.981Z,4.73
2018-07-05T13:30:23.981Z,5.10
2018-07-05T13:33:02.958Z,4.60
2018-07-05T13:35:41.819Z,5.63
2018-07-05T13:38:20.756Z,5.63
2018-07-05T13:41:01.206Z,4.70
2018-07-05T13:43:40.248Z,4.90
2018-07-05T13:46:19.216Z,4.37
2018-07-05T13:48:58.238Z,4.83
2018-07-05T13:51:37.123Z,4.40
2018-07-05T13:54:16.063Z,3.70
2018-07-05T13:56:54.975Z,4.17
2018-07-05T13:59:33.988Z,4.03
2018-07-05T14:02:13.004Z,3.53
2018-07-05T14:04:52.112Z,3.67
2018-07-05T14:07:31.024Z,3.97
2018-07-05T14:10:09.744Z,3.80
2018-07-05T14:12:48.840Z,3.10
2018-07-05T14:15:27.739Z,4.13
2018-07-05T14:18:06.752Z,4.20
2018-07-05T14:20:45.828Z,4.10
2018-07-05T14:23:24.759Z,3.70
2018-07-05T14:26:03.710Z,3.80
2018-07-05T14:28:42.663Z,3.63
2018-07-05T14:31:22.027Z,3.37
2018-07-05T14:34:00.876Z,3.87
2018-07-05T14:36:39.844Z,3.60
2018-07-05T14:39:18.924Z,4.10
2018-07-05T14:41:57.848Z,4.10
2018-07-05T14:44:36.875Z,5.00
2018-07-05T14:47:16.161Z,3.93
2018-07-05T14:49:55.166Z,4.00
2018-07-05T14:52:34.632Z,4.30
2018-07-05T14:55:13.641Z,4.60
2018-07-05T14:57:52.567Z,4.03
2018-07-05T15:00:31.467Z,3.50
2018-07-05T15:03:10.512Z,4.20
2018-07-05T15:05:49.367Z,3.97
2018-07-05T15:08:28.375Z,3.40
2018-07-05T15:11:07.718Z,3.80
2018-07-05T15:13:46.715Z,3.37
2018-07-05T15:16:25.836Z,4.00
2018-07-05T15:19:04.825Z,3.70
2018-07-05T15:21:43.747Z,4.10
2018-07-05T15:24:23.027Z,4.00
2018-07-05T15:27:02.177Z,3.80
2018-07-05T15:29:41.040Z,4.20
2018-07-05T15:32:20.064Z,4.00
2018-07-05T15:34:58.992Z,4.67
2018-07-05T15:37:37.988Z,4.10
2018-07-05T15:40:16.971Z,3.63
2018-07-05T15:42:55.930Z,3.53
2018-07-05T15:45:34.741Z,3.57
2018-07-05T15:48:13.604Z,3.50
2018-07-05T15:50:52.612Z,3.63
2018-07-05T15:53:31.464Z,2.97
2018-07-05T15:56:10.445Z,3.50
2018-07-05T15:58:49.433Z,3.83
2018-07-05T16:01:28.635Z,3.87
2018-07-05T16:04:07.691Z,4.17
2018-07-05T16:06:50.333Z,3.27
2018-07-05T16:09:34.941Z,2.67
2018-07-05T16:12:21.299Z,3.70
2018-07-05T16:15:00.620Z,3.37
2018-07-05T16:17:39.568Z,2.97
2018-07-05T16:20:18.739Z,3.63
2018-07-05T16:22:57.637Z,3.57
2018-07-05T16:25:36.920Z,3.93
2018-07-05T16:28:15.783Z,4.00
2018-07-05T16:30:54.704Z,4.93
2018-07-05T16:33:34.043Z,3.10
2018-07-05T16:36:12.967Z,2.70
2018-07-05T16:38:52.739Z,3.10
2018-07-05T16:41:31.627Z,3.60
2018-07-05T16:44:10.749Z,5.57
2018-07-05T16:46:49.767Z,4.10
2018-07-05T16:49:28.758Z,3.53
2018-07-05T16:52:07.875Z,3.60
2018-07-05T16:54:46.973Z,3.73
2018-07-05T16:57:25.899Z,4.50
2018-07-05T17:00:04.819Z,2.97
2018-07-05T17:02:43.882Z,3.43
2018-07-05T17:05:22.957Z,4.33
2018-07-05T17:08:01.828Z,3.40
2018-07-05T17:10:40.824Z,2.57
2018-07-05T17:13:19.766Z,2.33
2018-07-05T17:15:58.793Z,2.00
2018-07-05T17:18:38.133Z,2.37
2018-07-05T17:21:17.216Z,3.20
2018-07-05T17:23:56.325Z,4.00
2018-07-05T17:26:35.339Z,3.33
2018-07-05T17:29:14.471Z,2.77
2018-07-05T17:31:53.512Z,2.70
2018-07-05T17:34:32.747Z,2.60
2018-07-05T17:37:11.605Z,4.10
2018-07-05T17:39:44.743Z,4.40
2018-07-05T17:42:23.954Z,3.90
2018-07-05T17:45:02.835Z,4.80
2018-07-05T17:47:41.916Z,3.77
2018-07-05T17:50:20.812Z,4.67
2018-07-05T17:52:59.852Z,4.17
2018-07-05T17:55:38.805Z,4.30
2018-07-05T17:58:17.881Z,6.17
2018-07-05T18:00:57.471Z,4.67
2018-07-05T18:03:36.458Z,4.20
2018-07-05T18:06:15.540Z,4.60
2018-07-05T18:08:54.419Z,3.93
2018-07-05T18:11:33.843Z,4.93
2018-07-05T18:14:12.848Z,3.93
2018-07-05T18:16:52.029Z,4.80
2018-07-05T18:19:31.138Z,4.93
2018-07-05T18:22:09.955Z,5.90
2018-07-05T18:24:48.976Z,4.93
2018-07-05T18:27:27.935Z,6.50
2018-07-05T18:30:06.943Z,7.33
2018-07-05T18:32:45.931Z,5.33
2018-07-05T18:35:24.922Z,4.70
2018-07-05T18:38:04.117Z,5.33
2018-07-05T18:40:43.254Z,4.73
2018-07-05T18:43:22.311Z,5.73
2018-07-05T18:46:01.528Z,5.10
2018-07-05T18:48:40.364Z,4.43
2018-07-05T18:51:13.900Z,4.33
2018-07-05T18:53:52.965Z,4.00
2018-07-05T18:56:31.941Z,4.57
2018-07-05T18:59:10.961Z,4.80
2018-07-05T19:01:50.760Z,4.67
2018-07-05T19:04:29.791Z,3.60
2018-07-05T19:07:08.847Z,4.23
2018-07-05T19:09:47.855Z,5.00
2018-07-05T19:12:28.437Z,3.90
2018-07-05T19:15:07.471Z,4.13
2018-07-05T19:17:46.571Z,4.27
2018-07-05T19:20:26.029Z,3.80
2018-07-05T19:23:05.382Z,6.93
2018-07-05T19:25:44.499Z,3.20
2018-07-05T19:28:23.609Z,3.20
2018-07-05T19:31:02.602Z,4.67
2018-07-05T19:33:41.704Z,4.10
2018-07-05T19:36:20.814Z,3.93
2018-07-05T19:38:59.803Z,4.93
2018-07-05T19:41:42.622Z,5.70
2018-07-05T19:44:21.627Z,5.47
2018-07-05T19:47:00.646Z,6.47
2018-07-05T19:49:39.606Z,5.00
2018-07-05T19:52:18.547Z,4.73
2018-07-05T19:54:57.704Z,4.77
2018-07-05T19:57:36.734Z,4.57
2018-07-05T20:00:15.813Z,4.87
2018-07-05T20:02:54.759Z,4.60
2018-07-05T20:05:34.592Z,5.40
2018-07-05T20:08:13.492Z,4.33
2018-07-05T20:10:59.116Z,7.80
2018-07-05T20:13:39.456Z,5.50
2018-07-05T20:16:18.335Z,4.70
2018-07-05T20:18:57.834Z,5.23
2018-07-05T20:21:36.853Z,4.90
2018-07-05T20:24:16.319Z,4.43
2018-07-05T20:26:55.829Z,5.57
2018-07-05T20:29:34.690Z,6.50
2018-07-05T20:32:13.672Z,4.53
2018-07-05T20:34:53.027Z,4.63
2018-07-05T20:37:32.311Z,4.80
2018-07-05T20:40:11.337Z,5.07
2018-07-05T20:42:50.281Z,4.33
2018-07-05T20:45:29.672Z,5.00
2018-07-05T20:48:09.020Z,5.00
2018-07-05T20:50:48.027Z,4.70
2018-07-05T20:53:26.988Z,5.00
2018-07-05T20:56:06.074Z,4.23
2018-07-05T20:58:45.475Z,5.23
2018-07-05T21:01:24.588Z,6.53
2018-07-05T21:04:03.632Z,5.60
2018-07-05T21:06:42.721Z,7.27
2018-07-05T21:09:21.789Z,5.10
2018-07-05T21:12:00.892Z,6.07
2018-07-05T21:14:40.160Z,4.90
2018-07-05T21:17:19.155Z,5.90
2018-07-05T21:19:58.067Z,4.77
2018-07-05T21:22:37.141Z,4.70
2018-07-05T21:25:17.149Z,6.00
2018-07-05T21:27:56.684Z,4.30
2018-07-05T21:30:35.772Z,4.97
2018-07-05T21:33:15.896Z,4.40
2018-07-05T21:35:55.065Z,4.83
2018-07-05T21:38:34.057Z,3.77
2018-07-05T21:41:13.138Z,3.43
2018-07-05T21:43:52.194Z,4.07
2018-07-05T21:46:31.160Z,4.23
2018-07-05T21:49:10.278Z,3.80
2018-07-05T21:51:49.107Z,3.70
2018-07-05T21:54:28.260Z,3.83
2018-07-05T21:57:07.233Z,4.10
2018-07-05T21:59:46.243Z,3.57
2018-07-05T22:02:25.144Z,4.63
2018-07-05T22:05:05.128Z,3.60
2018-07-05T22:07:44.353Z,3.80
2018-07-05T22:10:23.368Z,2.80
2018-07-05T22:13:02.272Z,3.23
2018-07-05T22:15:41.711Z,4.87
2018-07-05T22:18:26.404Z,4.60
2018-07-05T22:21:08.595Z,4.93
2018-07-05T22:23:53.399Z,3.10
2018-07-05T22:26:37.137Z,2.30
2018-07-05T22:29:21.801Z,3.00
2018-07-05T22:32:01.319Z,2.90
2018-07-05T22:34:40.287Z,4.03
2018-07-05T22:37:19.268Z,2.80
2018-07-05T22:39:58.268Z,2.83
2018-07-05T22:42:37.372Z,3.53
2018-07-05T22:45:16.231Z,3.13
2018-07-05T22:47:55.642Z,3.03
2018-07-05T22:50:34.506Z,3.63
2018-07-05T22:53:13.583Z,2.97
2018-07-05T22:55:53.092Z,3.07
2018-07-05T22:58:32.577Z,3.30
2018-07-05T23:01:12.057Z,2.90
2018-07-05T23:03:51.010Z,3.17
2018-07-05T23:06:30.172Z,2.70
2018-07-05T23:09:09.438Z,3.50
2018-07-05T23:11:48.644Z,3.10
2018-07-05T23:14:27.571Z,3.53
2018-07-05T23:17:06.712Z,3.47
2018-07-05T23:19:45.707Z,3.43
2018-07-05T23:22:24.688Z,4.20
2018-07-05T23:25:05.192Z,5.63
2018-07-05T23:27:44.247Z,3.90
2018-07-05T23:30:24.040Z,4.00
2018-07-05T23:33:03.075Z,5.03
2018-07-05T23:35:42.196Z,3.27
2018-07-05T23:38:15.413Z,3.70
2018-07-05T23:40:54.787Z,3.87
2018-07-05T23:43:34.005Z,3.10
2018-07-05T23:46:12.852Z,5.30
2018-07-05T23:48:51.737Z,3.90
2018-07-05T23:51:30.920Z,4.13
2018-07-05T23:54:09.897Z,3.93
2018-07-05T23:56:49.088Z,3.90
2018-07-05T23:59:28.064Z,4.10
